sensor_id;sensor_type;location;lat;lon;timestamp;pressure;altitude;pressure_sealevel;temperature;humidity
64404;BME280;50726;54.912;-8.392;2023-01-27T00:00:35;102922.81;;;33.95;28.81
64404;BME280;50726;54.912;-8.392;2023-01-27T00:03:01;102915.19;;;33.79;28.45
64404;BME280;50726;54.912;-8.392;2023-01-27T00:05:27;102905.84;;;33.17;28.51
64404;BME280;50726;54.912;-8.392;2023-01-27T00:07:52;102912.94;;;33.30;27.93
64404;BME280;50726;54.912;-8.392;2023-01-27T00:10:19;102915.59;;;33.41;28.18
64404;BME280;50726;54.912;-8.392;2023-01-27T00:12:46;102910.97;;;33.32;28.43
64404;BME280;50726;54.912;-8.392;2023-01-27T00:15:31;102906.19;;;31.77;29.43
64404;BME280;50726;54.912;-8.392;2023-01-27T00:17:58;102900.84;;;32.11;28.84
64404;BME280;50726;54.912;-8.392;2023-01-27T00:20:24;102902.06;;;31.48;29.15
64404;BME280;50726;54.912;-8.392;2023-01-27T00:23:20;102909.22;;;32.31;28.44
64404;BME280;50726;54.912;-8.392;2023-01-27T00:26:06;102907.91;;;31.78;29.43
64404;BME280;50726;54.912;-8.392;2023-01-27T00:28:37;102908.16;;;32.89;28.59
64404;BME280;50726;54.912;-8.392;2023-01-27T00:31:04;102901.09;;;32.54;28.34
64404;BME280;50726;54.912;-8.392;2023-01-27T00:33:30;102903.97;;;32.85;27.45
64404;BME280;50726;54.912;-8.392;2023-01-27T00:35:58;102897.34;;;32.78;29.56
64404;BME280;50726;54.912;-8.392;2023-01-27T00:38:25;102896.69;;;32.97;28.49
64404;BME280;50726;54.912;-8.392;2023-01-27T00:40:51;102901.03;;;33.75;27.37
64404;BME280;50726;54.912;-8.392;2023-01-27T00:43:35;102895.78;;;32.64;29.28
64404;BME280;50726;54.912;-8.392;2023-01-27T00:46:01;102881.38;;;32.63;30.87
64404;BME280;50726;54.912;-8.392;2023-01-27T00:48:27;102886.16;;;34.32;28.56
64404;BME280;50726;54.912;-8.392;2023-01-27T00:50:53;102878.91;;;33.16;29.81
64404;BME280;50726;54.912;-8.392;2023-01-27T00:53:18;102884.78;;;34.16;29.31
64404;BME280;50726;54.912;-8.392;2023-01-27T00:55:44;102879.72;;;34.01;28.82
64404;BME280;50726;54.912;-8.392;2023-01-27T00:58:12;102876.63;;;35.76;27.72
64404;BME280;50726;54.912;-8.392;2023-01-27T01:00:37;102881.56;;;34.42;30.58
64404;BME280;50726;54.912;-8.392;2023-01-27T01:03:03;102875.72;;;33.11;30.32
64404;BME280;50726;54.912;-8.392;2023-01-27T01:05:29;102865.94;;;33.19;29.77
64404;BME280;50726;54.912;-8.392;2023-01-27T01:07:55;102863.28;;;33.08;29.28
64404;BME280;50726;54.912;-8.392;2023-01-27T01:10:20;102855.44;;;32.82;30.95
64404;BME280;50726;54.912;-8.392;2023-01-27T01:12:46;102862.50;;;32.73;32.94
64404;BME280;50726;54.912;-8.392;2023-01-27T01:15:12;102855.56;;;33.25;30.68
64404;BME280;50726;54.912;-8.392;2023-01-27T01:17:37;102844.94;;;32.56;30.20
64404;BME280;50726;54.912;-8.392;2023-01-27T01:20:03;102847.56;;;31.89;31.95
64404;BME280;50726;54.912;-8.392;2023-01-27T01:22:29;102843.75;;;32.03;31.37
64404;BME280;50726;54.912;-8.392;2023-01-27T01:24:55;102841.59;;;33.08;31.53
64404;BME280;50726;54.912;-8.392;2023-01-27T01:27:22;102847.06;;;33.39;31.78
64404;BME280;50726;54.912;-8.392;2023-01-27T01:29:47;102845.31;;;31.71;33.76
64404;BME280;50726;54.912;-8.392;2023-01-27T01:32:13;102832.22;;;33.33;31.06
64404;BME280;50726;54.912;-8.392;2023-01-27T01:34:39;102831.13;;;33.03;29.82
64404;BME280;50726;54.912;-8.392;2023-01-27T01:37:04;102821.22;;;33.14;29.82
64404;BME280;50726;54.912;-8.392;2023-01-27T01:39:31;102816.72;;;33.45;29.11
64404;BME280;50726;54.912;-8.392;2023-01-27T01:41:57;102800.50;;;33.34;28.95
64404;BME280;50726;54.912;-8.392;2023-01-27T01:44:28;102811.06;;;32.94;32.35
64404;BME280;50726;54.912;-8.392;2023-01-27T01:46:54;102797.75;;;33.24;30.75
64404;BME280;50726;54.912;-8.392;2023-01-27T01:49:34;102800.72;;;34.85;29.84
64404;BME280;50726;54.912;-8.392;2023-01-27T01:52:19;102794.66;;;36.07;29.01
64404;BME280;50726;54.912;-8.392;2023-01-27T01:54:52;102792.69;;;35.03;29.73
64404;BME280;50726;54.912;-8.392;2023-01-27T01:57:23;102791.72;;;35.52;28.49
64404;BME280;50726;54.912;-8.392;2023-01-27T01:59:59;102783.41;;;35.64;30.94
64404;BME280;50726;54.912;-8.392;2023-01-27T02:02:27;102780.56;;;35.45;29.54
64404;BME280;50726;54.912;-8.392;2023-01-27T02:05:12;102784.50;;;36.27;29.25
64404;BME280;50726;54.912;-8.392;2023-01-27T02:07:44;102779.91;;;36.46;28.14
64404;BME280;50726;54.912;-8.392;2023-01-27T02:10:12;102783.56;;;36.36;28.41
64404;BME280;50726;54.912;-8.392;2023-01-27T02:12:38;102783.34;;;34.17;29.83
64404;BME280;50726;54.912;-8.392;2023-01-27T02:15:05;102777.22;;;35.99;28.61
64404;BME280;50726;54.912;-8.392;2023-01-27T02:17:32;102784.34;;;34.36;28.73
64404;BME280;50726;54.912;-8.392;2023-01-27T02:20:20;102786.72;;;37.04;27.01
64404;BME280;50726;54.912;-8.392;2023-01-27T02:23:18;102788.94;;;37.88;27.85
64404;BME280;50726;54.912;-8.392;2023-01-27T02:28:13;102783.34;;;35.73;28.71
64404;BME280;50726;54.912;-8.392;2023-01-27T02:30:39;102786.81;;;34.98;29.63
64404;BME280;50726;54.912;-8.392;2023-01-27T02:33:12;102791.16;;;34.81;31.89
64404;BME280;50726;54.912;-8.392;2023-01-27T02:38:21;102789.50;;;34.19;29.52
64404;BME280;50726;54.912;-8.392;2023-01-27T02:40:49;102784.41;;;34.55;28.74
64404;BME280;50726;54.912;-8.392;2023-01-27T02:43:18;102785.91;;;31.36;30.49
64404;BME280;50726;54.912;-8.392;2023-01-27T02:45:47;102790.50;;;31.22;32.43
64404;BME280;50726;54.912;-8.392;2023-01-27T02:48:14;102781.00;;;31.52;32.78
64404;BME280;50726;54.912;-8.392;2023-01-27T02:50:39;102788.25;;;31.04;30.56
64404;BME280;50726;54.912;-8.392;2023-01-27T02:53:06;102789.19;;;30.92;33.27
64404;BME280;50726;54.912;-8.392;2023-01-27T02:55:32;102783.13;;;30.15;33.57
64404;BME280;50726;54.912;-8.392;2023-01-27T02:57:58;102786.38;;;29.94;34.21
64404;BME280;50726;54.912;-8.392;2023-01-27T03:00:23;102770.97;;;30.58;31.83
64404;BME280;50726;54.912;-8.392;2023-01-27T03:02:49;102784.56;;;29.82;33.19
64404;BME280;50726;54.912;-8.392;2023-01-27T03:05:16;102790.81;;;29.82;32.64
64404;BME280;50726;54.912;-8.392;2023-01-27T03:07:41;102779.66;;;30.00;31.91
64404;BME280;50726;54.912;-8.392;2023-01-27T03:10:08;102779.16;;;30.94;31.99
64404;BME280;50726;54.912;-8.392;2023-01-27T03:12:34;102785.47;;;30.81;31.13
64404;BME280;50726;54.912;-8.392;2023-01-27T03:15:00;102782.25;;;31.59;30.78
64404;BME280;50726;54.912;-8.392;2023-01-27T03:17:44;102776.47;;;33.19;29.57
64404;BME280;50726;54.912;-8.392;2023-01-27T03:20:29;102770.84;;;32.57;30.21
64404;BME280;50726;54.912;-8.392;2023-01-27T03:22:55;102765.22;;;33.03;29.40
64404;BME280;50726;54.912;-8.392;2023-01-27T03:25:21;102769.75;;;31.23;30.54
64404;BME280;50726;54.912;-8.392;2023-01-27T03:27:47;102781.88;;;31.17;30.69
64404;BME280;50726;54.912;-8.392;2023-01-27T03:30:13;102764.28;;;32.15;30.01
64404;BME280;50726;54.912;-8.392;2023-01-27T03:32:38;102769.13;;;30.34;31.46
64404;BME280;50726;54.912;-8.392;2023-01-27T03:35:15;102769.25;;;30.33;31.84
64404;BME280;50726;54.912;-8.392;2023-01-27T03:37:41;102770.50;;;30.02;32.10
64404;BME280;50726;54.912;-8.392;2023-01-27T03:40:26;102767.75;;;29.65;33.32
64404;BME280;50726;54.912;-8.392;2023-01-27T03:43:10;102769.13;;;29.97;32.10
64404;BME280;50726;54.912;-8.392;2023-01-27T03:45:55;102762.78;;;30.22;32.25
64404;BME280;50726;54.912;-8.392;2023-01-27T03:48:47;102758.69;;;30.78;31.86
64404;BME280;50726;54.912;-8.392;2023-01-27T03:51:14;102752.75;;;31.68;30.86
64404;BME280;50726;54.912;-8.392;2023-01-27T03:53:40;102747.97;;;31.01;31.47
64404;BME280;50726;54.912;-8.392;2023-01-27T03:56:06;102748.22;;;30.49;32.17
64404;BME280;50726;54.912;-8.392;2023-01-27T03:58:35;102736.38;;;30.63;32.24
64404;BME280;50726;54.912;-8.392;2023-01-27T04:01:05;102736.94;;;31.16;31.90
64404;BME280;50726;54.912;-8.392;2023-01-27T04:03:33;102738.38;;;30.97;32.28
64404;BME280;50726;54.912;-8.392;2023-01-27T04:06:21;102739.78;;;30.78;32.23
64404;BME280;50726;54.912;-8.392;2023-01-27T04:09:07;102738.81;;;32.18;32.20
64404;BME280;50726;54.912;-8.392;2023-01-27T04:11:33;102731.53;;;32.30;32.63
64404;BME280;50726;54.912;-8.392;2023-01-27T04:14:18;102728.03;;;33.36;30.42
64404;BME280;50726;54.912;-8.392;2023-01-27T04:16:44;102718.88;;;33.06;32.16
64404;BME280;50726;54.912;-8.392;2023-01-27T04:19:11;102729.16;;;34.06;30.42
64404;BME280;50726;54.912;-8.392;2023-01-27T04:21:37;102721.63;;;35.36;29.56
64404;BME280;50726;54.912;-8.392;2023-01-27T04:24:04;102729.13;;;33.96;31.99
64404;BME280;50726;54.912;-8.392;2023-01-27T04:26:33;102724.72;;;33.32;30.15
64404;BME280;50726;54.912;-8.392;2023-01-27T04:29:00;102731.97;;;32.47;31.63
64404;BME280;50726;54.912;-8.392;2023-01-27T04:31:27;102726.53;;;33.94;32.09
64404;BME280;50726;54.912;-8.392;2023-01-27T04:33:52;102724.63;;;33.44;30.58
64404;BME280;50726;54.912;-8.392;2023-01-27T04:36:18;102727.94;;;32.41;30.55
64404;BME280;50726;54.912;-8.392;2023-01-27T04:38:44;102718.75;;;33.39;31.22
64404;BME280;50726;54.912;-8.392;2023-01-27T04:41:10;102720.66;;;32.74;33.31
64404;BME280;50726;54.912;-8.392;2023-01-27T04:43:35;102720.53;;;31.42;30.75
64404;BME280;50726;54.912;-8.392;2023-01-27T04:46:02;102709.47;;;31.45;32.61
64404;BME280;50726;54.912;-8.392;2023-01-27T04:48:27;102713.28;;;31.54;31.31
64404;BME280;50726;54.912;-8.392;2023-01-27T04:50:53;102710.81;;;32.29;32.68
64404;BME280;50726;54.912;-8.392;2023-01-27T04:53:19;102706.28;;;32.41;31.08
64404;BME280;50726;54.912;-8.392;2023-01-27T04:55:46;102698.63;;;32.89;31.77
64404;BME280;50726;54.912;-8.392;2023-01-27T04:58:13;102689.75;;;34.21;30.60
64404;BME280;50726;54.912;-8.392;2023-01-27T05:00:41;102688.31;;;34.66;29.53
64404;BME280;50726;54.912;-8.392;2023-01-27T05:03:07;102687.44;;;34.76;29.33
64404;BME280;50726;54.912;-8.392;2023-01-27T05:05:35;102684.75;;;35.24;29.55
64404;BME280;50726;54.912;-8.392;2023-01-27T05:08:05;102671.13;;;34.86;28.67
64404;BME280;50726;54.912;-8.392;2023-01-27T05:10:32;102670.50;;;32.59;32.77
64404;BME280;50726;54.912;-8.392;2023-01-27T05:12:58;102681.28;;;32.37;30.69
64404;BME280;50726;54.912;-8.392;2023-01-27T05:15:24;102672.81;;;33.88;29.72
64404;BME280;50726;54.912;-8.392;2023-01-27T05:17:50;102676.75;;;33.54;32.48
64404;BME280;50726;54.912;-8.392;2023-01-27T05:20:16;102669.69;;;30.04;33.24
64404;BME280;50726;54.912;-8.392;2023-01-27T05:22:41;102658.69;;;31.60;33.77
64404;BME280;50726;54.912;-8.392;2023-01-27T05:25:08;102662.53;;;33.92;32.78
64404;BME280;50726;54.912;-8.392;2023-01-27T05:27:34;102662.56;;;34.41;30.15
64404;BME280;50726;54.912;-8.392;2023-01-27T05:29:59;102670.38;;;33.75;29.88
64404;BME280;50726;54.912;-8.392;2023-01-27T05:32:25;102675.38;;;33.39;32.35
64404;BME280;50726;54.912;-8.392;2023-01-27T05:34:51;102674.13;;;32.48;33.20
64404;BME280;50726;54.912;-8.392;2023-01-27T05:37:17;102664.88;;;32.93;32.21
64404;BME280;50726;54.912;-8.392;2023-01-27T05:39:43;102662.97;;;32.62;31.94
64404;BME280;50726;54.912;-8.392;2023-01-27T05:42:09;102650.97;;;33.07;31.36
64404;BME280;50726;54.912;-8.392;2023-01-27T05:44:35;102649.94;;;32.56;32.28
64404;BME280;50726;54.912;-8.392;2023-01-27T05:47:00;102647.78;;;31.27;32.27
64404;BME280;50726;54.912;-8.392;2023-01-27T05:49:26;102647.88;;;30.91;33.18
64404;BME280;50726;54.912;-8.392;2023-01-27T05:51:52;102654.44;;;30.40;33.12
64404;BME280;50726;54.912;-8.392;2023-01-27T05:54:17;102659.06;;;31.90;33.53
64404;BME280;50726;54.912;-8.392;2023-01-27T05:56:43;102656.56;;;30.84;33.88
64404;BME280;50726;54.912;-8.392;2023-01-27T05:59:09;102656.50;;;32.53;32.59
64404;BME280;50726;54.912;-8.392;2023-01-27T06:01:36;102660.50;;;33.33;32.18
64404;BME280;50726;54.912;-8.392;2023-01-27T06:04:03;102675.75;;;33.24;30.94
64404;BME280;50726;54.912;-8.392;2023-01-27T06:06:30;102672.16;;;33.24;31.41
64404;BME280;50726;54.912;-8.392;2023-01-27T06:08:56;102675.53;;;31.06;33.05
64404;BME280;50726;54.912;-8.392;2023-01-27T06:11:23;102663.09;;;31.95;32.76
64404;BME280;50726;54.912;-8.392;2023-01-27T06:13:50;102662.69;;;32.87;31.83
64404;BME280;50726;54.912;-8.392;2023-01-27T06:16:18;102648.47;;;33.57;31.47
64404;BME280;50726;54.912;-8.392;2023-01-27T06:18:45;102642.50;;;33.63;31.88
64404;BME280;50726;54.912;-8.392;2023-01-27T06:21:12;102651.25;;;33.35;30.05
64404;BME280;50726;54.912;-8.392;2023-01-27T06:23:39;102655.13;;;32.59;32.23
64404;BME280;50726;54.912;-8.392;2023-01-27T06:26:10;102656.06;;;33.63;29.63
64404;BME280;50726;54.912;-8.392;2023-01-27T06:28:36;102653.44;;;32.89;32.26
64404;BME280;50726;54.912;-8.392;2023-01-27T06:31:13;102652.72;;;32.45;33.02
64404;BME280;50726;54.912;-8.392;2023-01-27T06:33:39;102656.53;;;32.09;32.38
64404;BME280;50726;54.912;-8.392;2023-01-27T06:36:10;102649.75;;;32.69;32.09
64404;BME280;50726;54.912;-8.392;2023-01-27T06:38:37;102648.84;;;31.70;31.62
64404;BME280;50726;54.912;-8.392;2023-01-27T06:41:03;102650.25;;;31.53;33.27
64404;BME280;50726;54.912;-8.392;2023-01-27T06:43:29;102642.63;;;33.20;30.44
64404;BME280;50726;54.912;-8.392;2023-01-27T06:45:55;102648.38;;;33.78;29.91
64404;BME280;50726;54.912;-8.392;2023-01-27T06:48:25;102648.03;;;35.00;31.16
64404;BME280;50726;54.912;-8.392;2023-01-27T06:50:54;102635.16;;;35.86;29.44
64404;BME280;50726;54.912;-8.392;2023-01-27T06:53:21;102635.59;;;34.10;31.10
64404;BME280;50726;54.912;-8.392;2023-01-27T06:55:47;102644.00;;;34.07;29.54
64404;BME280;50726;54.912;-8.392;2023-01-27T06:58:14;102646.63;;;33.57;31.42
64404;BME280;50726;54.912;-8.392;2023-01-27T07:00:40;102633.41;;;34.63;29.22
64404;BME280;50726;54.912;-8.392;2023-01-27T07:03:07;102636.97;;;32.81;30.73
64404;BME280;50726;54.912;-8.392;2023-01-27T07:05:33;102627.25;;;32.36;30.84
64404;BME280;50726;54.912;-8.392;2023-01-27T07:07:59;102638.75;;;32.71;31.87
64404;BME280;50726;54.912;-8.392;2023-01-27T07:10:26;102629.66;;;33.24;33.20
64404;BME280;50726;54.912;-8.392;2023-01-27T07:12:52;102629.44;;;33.47;31.44
64404;BME280;50726;54.912;-8.392;2023-01-27T07:15:18;102638.69;;;32.82;31.91
64404;BME280;50726;54.912;-8.392;2023-01-27T07:17:43;102633.53;;;33.31;30.51
64404;BME280;50726;54.912;-8.392;2023-01-27T07:20:11;102626.78;;;33.57;31.01
64404;BME280;50726;54.912;-8.392;2023-01-27T07:22:37;102628.63;;;32.41;32.11
64404;BME280;50726;54.912;-8.392;2023-01-27T07:25:04;102630.28;;;33.06;31.81
64404;BME280;50726;54.912;-8.392;2023-01-27T07:27:34;102631.25;;;33.27;30.63
64404;BME280;50726;54.912;-8.392;2023-01-27T07:29:59;102639.47;;;33.15;30.41
64404;BME280;50726;54.912;-8.392;2023-01-27T07:32:25;102638.75;;;32.71;33.41
64404;BME280;50726;54.912;-8.392;2023-01-27T07:34:51;102638.22;;;33.80;30.21
64404;BME280;50726;54.912;-8.392;2023-01-27T07:37:17;102629.06;;;32.89;30.99
64404;BME280;50726;54.912;-8.392;2023-01-27T07:39:42;102625.06;;;31.41;30.88
64404;BME280;50726;54.912;-8.392;2023-01-27T07:42:08;102620.16;;;32.02;31.96
64404;BME280;50726;54.912;-8.392;2023-01-27T07:44:34;102629.44;;;31.65;31.20
64404;BME280;50726;54.912;-8.392;2023-01-27T07:47:00;102628.84;;;31.16;33.59
64404;BME280;50726;54.912;-8.392;2023-01-27T07:49:26;102628.59;;;31.07;32.92
64404;BME280;50726;54.912;-8.392;2023-01-27T07:51:52;102620.13;;;29.56;32.27
64404;BME280;50726;54.912;-8.392;2023-01-27T07:54:18;102632.28;;;28.84;32.92
64404;BME280;50726;54.912;-8.392;2023-01-27T07:56:44;102626.06;;;28.83;32.40
64404;BME280;50726;54.912;-8.392;2023-01-27T07:59:10;102629.25;;;28.49;33.35
64404;BME280;50726;54.912;-8.392;2023-01-27T08:01:36;102625.25;;;29.72;32.93
64404;BME280;50726;54.912;-8.392;2023-01-27T08:04:02;102626.28;;;29.82;31.14
64404;BME280;50726;54.912;-8.392;2023-01-27T08:06:28;102624.66;;;31.23;30.83
64404;BME280;50726;54.912;-8.392;2023-01-27T08:08:54;102624.97;;;25.80;36.18
64404;BME280;50726;54.912;-8.392;2023-01-27T08:11:21;102620.97;;;28.65;32.71
64404;BME280;50726;54.912;-8.392;2023-01-27T08:13:46;102621.72;;;26.99;33.46
64404;BME280;50726;54.912;-8.392;2023-01-27T08:16:14;102610.28;;;28.10;33.00
64404;BME280;50726;54.912;-8.392;2023-01-27T08:18:40;102610.56;;;28.06;32.68
64404;BME280;50726;54.912;-8.392;2023-01-27T08:21:09;102612.22;;;26.93;35.22
64404;BME280;50726;54.912;-8.392;2023-01-27T08:23:35;102618.44;;;27.81;33.38
64404;BME280;50726;54.912;-8.392;2023-01-27T08:26:03;102614.00;;;29.54;32.69
64404;BME280;50726;54.912;-8.392;2023-01-27T08:28:31;102620.03;;;30.66;31.38
64404;BME280;50726;54.912;-8.392;2023-01-27T08:31:06;102620.81;;;27.86;35.51
64404;BME280;50726;54.912;-8.392;2023-01-27T08:33:36;102621.47;;;30.12;31.81
64404;BME280;50726;54.912;-8.392;2023-01-27T08:36:08;102625.44;;;31.48;30.60
64404;BME280;50726;54.912;-8.392;2023-01-27T08:38:35;102620.09;;;28.65;31.94
64404;BME280;50726;54.912;-8.392;2023-01-27T08:41:07;102626.72;;;29.26;32.98
64404;BME280;50726;54.912;-8.392;2023-01-27T08:43:34;102625.66;;;29.15;32.13
64404;BME280;50726;54.912;-8.392;2023-01-27T08:46:00;102633.81;;;26.61;34.14
64404;BME280;50726;54.912;-8.392;2023-01-27T08:48:27;102622.09;;;27.07;35.30
64404;BME280;50726;54.912;-8.392;2023-01-27T08:50:54;102616.34;;;28.67;32.60
64404;BME280;50726;54.912;-8.392;2023-01-27T08:53:21;102606.81;;;27.81;31.95
64404;BME280;50726;54.912;-8.392;2023-01-27T08:55:47;102613.50;;;27.17;34.40
64404;BME280;50726;54.912;-8.392;2023-01-27T08:58:13;102614.91;;;28.49;32.87
64404;BME280;50726;54.912;-8.392;2023-01-27T09:00:38;102604.09;;;29.28;32.18
64404;BME280;50726;54.912;-8.392;2023-01-27T09:03:04;102616.25;;;29.34;32.30
64404;BME280;50726;54.912;-8.392;2023-01-27T09:05:30;102619.41;;;29.15;32.68
64404;BME280;50726;54.912;-8.392;2023-01-27T09:07:56;102619.16;;;30.19;32.32
64404;BME280;50726;54.912;-8.392;2023-01-27T09:10:21;102626.00;;;28.57;33.18
64404;BME280;50726;54.912;-8.392;2023-01-27T09:12:47;102621.59;;;25.93;35.61
64404;BME280;50726;54.912;-8.392;2023-01-27T09:15:14;102620.94;;;29.06;32.26
64404;BME280;50726;54.912;-8.392;2023-01-27T09:17:41;102617.59;;;27.23;34.51
64404;BME280;50726;54.912;-8.392;2023-01-27T09:20:07;102631.84;;;28.23;33.26
64404;BME280;50726;54.912;-8.392;2023-01-27T09:22:33;102628.78;;;25.42;35.97
64404;BME280;50726;54.912;-8.392;2023-01-27T09:25:02;102617.44;;;25.55;35.03
64404;BME280;50726;54.912;-8.392;2023-01-27T09:27:28;102631.56;;;26.84;34.18
64404;BME280;50726;54.912;-8.392;2023-01-27T09:29:54;102625.38;;;26.37;34.23
64404;BME280;50726;54.912;-8.392;2023-01-27T09:32:19;102620.59;;;26.42;34.83
64404;BME280;50726;54.912;-8.392;2023-01-27T09:34:45;102637.84;;;27.14;34.39
64404;BME280;50726;54.912;-8.392;2023-01-27T09:37:11;102628.84;;;28.68;33.05
64404;BME280;50726;54.912;-8.392;2023-01-27T09:39:51;102626.81;;;28.85;33.21
64404;BME280;50726;54.912;-8.392;2023-01-27T09:50:43;102616.16;;;30.46;31.65
64404;BME280;50726;54.912;-8.392;2023-01-27T09:53:33;102622.22;;;29.26;32.63
64404;BME280;50726;54.912;-8.392;2023-01-27T09:59:09;102602.50;;;29.00;33.42
64404;BME280;50726;54.912;-8.392;2023-01-27T10:04:41;102610.94;;;29.58;33.55
64404;BME280;50726;54.912;-8.392;2023-01-27T10:07:44;102603.97;;;29.30;32.52
64404;BME280;50726;54.912;-8.392;2023-01-27T10:19:17;102597.72;;;30.28;32.36
64404;BME280;50726;54.912;-8.392;2023-01-27T10:22:01;102604.03;;;30.76;32.24
64404;BME280;50726;54.912;-8.392;2023-01-27T10:25:00;102609.59;;;30.01;33.40
64404;BME280;50726;54.912;-8.392;2023-01-27T10:27:25;102608.00;;;29.11;34.04
64404;BME280;50726;54.912;-8.392;2023-01-27T10:29:59;102592.22;;;29.31;34.34
64404;BME280;50726;54.912;-8.392;2023-01-27T10:35:14;102597.13;;;26.76;36.22
64404;BME280;50726;54.912;-8.392;2023-01-27T10:40:51;102591.88;;;30.46;34.31
64404;BME280;50726;54.912;-8.392;2023-01-27T10:52:12;102582.00;;;29.98;36.78
64404;BME280;50726;54.912;-8.392;2023-01-27T10:55:21;102574.81;;;30.34;34.30
64404;BME280;50726;54.912;-8.392;2023-01-27T10:57:54;102577.09;;;28.91;35.87
64404;BME280;50726;54.912;-8.392;2023-01-27T11:00:37;102556.16;;;30.07;34.52
64404;BME280;50726;54.912;-8.392;2023-01-27T11:03:23;102578.94;;;27.96;38.40
64404;BME280;50726;54.912;-8.392;2023-01-27T11:05:52;102565.44;;;28.64;37.27
64404;BME280;50726;54.912;-8.392;2023-01-27T11:08:27;102563.75;;;28.23;38.12
64404;BME280;50726;54.912;-8.392;2023-01-27T11:10:56;102570.50;;;30.79;33.80
64404;BME280;50726;54.912;-8.392;2023-01-27T11:13:41;102560.34;;;28.73;36.25
64404;BME280;50726;54.912;-8.392;2023-01-27T11:16:15;102557.25;;;27.43;37.08
64404;BME280;50726;54.912;-8.392;2023-01-27T11:18:41;102554.53;;;30.17;35.72
64404;BME280;50726;54.912;-8.392;2023-01-27T11:21:30;102535.81;;;28.51;35.93
64404;BME280;50726;54.912;-8.392;2023-01-27T11:24:10;102531.63;;;29.37;34.39
64404;BME280;50726;54.912;-8.392;2023-01-27T11:26:39;102553.88;;;28.36;37.19
64404;BME280;50726;54.912;-8.392;2023-01-27T11:32:07;102547.66;;;29.14;34.66
64404;BME280;50726;54.912;-8.392;2023-01-27T11:35:01;102530.72;;;30.22;33.99
64404;BME280;50726;54.912;-8.392;2023-01-27T11:37:37;102534.06;;;29.15;36.83
64404;BME280;50726;54.912;-8.392;2023-01-27T11:40:13;102524.34;;;27.81;38.19
64404;BME280;50726;54.912;-8.392;2023-01-27T11:42:39;102521.75;;;26.50;40.43
64404;BME280;50726;54.912;-8.392;2023-01-27T11:45:10;102514.69;;;27.22;39.87
64404;BME280;50726;54.912;-8.392;2023-01-27T11:47:38;102514.06;;;28.41;38.22
64404;BME280;50726;54.912;-8.392;2023-01-27T11:50:11;102506.94;;;28.66;39.15
64404;BME280;50726;54.912;-8.392;2023-01-27T11:52:37;102508.34;;;26.50;41.32
64404;BME280;50726;54.912;-8.392;2023-01-27T11:57:45;102507.53;;;28.05;38.94
64404;BME280;50726;54.912;-8.392;2023-01-27T12:00:26;102501.56;;;28.27;39.40
64404;BME280;50726;54.912;-8.392;2023-01-27T12:05:41;102495.75;;;28.47;39.15
64404;BME280;50726;54.912;-8.392;2023-01-27T12:08:09;102505.88;;;28.56;39.21
64404;BME280;50726;54.912;-8.392;2023-01-27T12:10:39;102501.88;;;28.49;39.65
64404;BME280;50726;54.912;-8.392;2023-01-27T12:13:15;102496.41;;;29.27;38.92
64404;BME280;50726;54.912;-8.392;2023-01-27T12:16:14;102479.06;;;27.75;40.25
64404;BME280;50726;54.912;-8.392;2023-01-27T12:18:48;102477.22;;;28.68;39.49
64404;BME280;50726;54.912;-8.392;2023-01-27T12:21:16;102479.00;;;28.15;39.99
64404;BME280;50726;54.912;-8.392;2023-01-27T12:23:53;102484.66;;;28.51;39.42
64404;BME280;50726;54.912;-8.392;2023-01-27T12:26:36;102483.34;;;28.57;39.65
64404;BME280;50726;54.912;-8.392;2023-01-27T12:29:06;102476.13;;;28.97;40.25
64404;BME280;50726;54.912;-8.392;2023-01-27T12:31:43;102482.84;;;28.52;39.64
64404;BME280;50726;54.912;-8.392;2023-01-27T12:34:30;102483.88;;;29.01;37.95
64404;BME280;50726;54.912;-8.392;2023-01-27T12:36:57;102485.41;;;28.92;39.94
64404;BME280;50726;54.912;-8.392;2023-01-27T12:42:01;102486.78;;;26.66;41.22
64404;BME280;50726;54.912;-8.392;2023-01-27T12:44:39;102468.97;;;27.37;39.63
64404;BME280;50726;54.912;-8.392;2023-01-27T12:47:25;102467.47;;;27.87;39.37
64404;BME280;50726;54.912;-8.392;2023-01-27T12:50:20;102467.78;;;26.26;40.34
64404;BME280;50726;54.912;-8.392;2023-01-27T12:53:13;102468.09;;;29.21;40.10
64404;BME280;50726;54.912;-8.392;2023-01-27T12:55:58;102473.44;;;30.19;36.30
64404;BME280;50726;54.912;-8.392;2023-01-27T12:58:35;102467.44;;;28.54;37.78
64404;BME280;50726;54.912;-8.392;2023-01-27T13:01:05;102457.16;;;28.85;39.29
64404;BME280;50726;54.912;-8.392;2023-01-27T13:03:35;102454.72;;;27.21;40.21
64404;BME280;50726;54.912;-8.392;2023-01-27T13:06:03;102459.75;;;27.41;41.09
64404;BME280;50726;54.912;-8.392;2023-01-27T13:08:31;102441.03;;;29.71;36.71
64404;BME280;50726;54.912;-8.392;2023-01-27T13:11:00;102441.38;;;27.20;40.62
64404;BME280;50726;54.912;-8.392;2023-01-27T13:13:28;102442.44;;;28.78;40.60
64404;BME280;50726;54.912;-8.392;2023-01-27T13:16:22;102439.94;;;26.58;43.02
64404;BME280;50726;54.912;-8.392;2023-01-27T13:18:58;102423.47;;;28.92;39.27
64404;BME280;50726;54.912;-8.392;2023-01-27T13:21:42;102419.88;;;27.62;40.81
64404;BME280;50726;54.912;-8.392;2023-01-27T13:24:14;102416.50;;;28.90;37.80
64404;BME280;50726;54.912;-8.392;2023-01-27T13:26:44;102433.25;;;27.90;38.63
64404;BME280;50726;54.912;-8.392;2023-01-27T13:29:14;102410.28;;;25.54;44.48
64404;BME280;50726;54.912;-8.392;2023-01-27T13:34:37;102417.19;;;28.41;39.73
64404;BME280;50726;54.912;-8.392;2023-01-27T13:37:10;102438.38;;;26.97;40.18
64404;BME280;50726;54.912;-8.392;2023-01-27T13:42:22;102423.38;;;29.67;37.78
64404;BME280;50726;54.912;-8.392;2023-01-27T13:45:02;102415.38;;;30.01;37.90
64404;BME280;50726;54.912;-8.392;2023-01-27T13:47:59;102417.84;;;29.44;39.02
64404;BME280;50726;54.912;-8.392;2023-01-27T13:50:32;102413.50;;;28.56;40.20
64404;BME280;50726;54.912;-8.392;2023-01-27T13:53:01;102383.25;;;27.46;42.33
64404;BME280;50726;54.912;-8.392;2023-01-27T13:56:36;102401.25;;;27.31;42.39